Muson — UGLB — position and weather

sailwx.info

Track history (hours):
 
Tides and Currents Weather Stations Pressure Air Temp Water Temp Dewpoint Dewpoint Depression Visibility Wind Speed Wind Dir Waves Ship Positions

Muson

Last reported at 2014-Nov-27 05:33 UTC. Time now 2014-Nov-27 06:38 UTC.
Position N 59°55' E 030°15'.

Length 180 m; draft 4.6 m.

Type: Tug. MMSI: 273444990.

Date/timePositionNaut miles runAvg speedWind from/ knotsBaromVisibWave heightAir tempDewpointWater temp
2014-Nov-27 05:33N 59°55' E 030°15'3 0.6
2014-Nov-27 00:33N 59°57' E 030°19'1 0.3
2014-Nov-26 22:33N 59°56' E 030°18'1 0.6
2014-Nov-26 21:33N 59°56' E 030°17'2 0.3
2014-Nov-26 13:33N 59°55' E 030°14'0 0.0
2014-Nov-26 11:11N 59°55' E 030°14'0 0.0
2014-Nov-26 06:26N 59°55' E 030°14'0 0.0
2014-Nov-26 05:32N 59°55' E 030°14'0 0.0
2014-Nov-26 04:32N 59°55' E 030°14'0 0.0
2014-Nov-26 03:31N 59°55' E 030°14'0 0.0
2014-Nov-26 02:33N 59°55' E 030°14'0 0.0
2014-Nov-26 01:32N 59°55' E 030°14'0 0.0
2014-Nov-26 00:33N 59°55' E 030°14'0 0.0
2014-Nov-25 23:33N 59°55' E 030°14'0 0.0
2014-Nov-25 22:33N 59°55' E 030°14'0 0.0
2014-Nov-25 21:33N 59°55' E 030°14'0 0.0
2014-Nov-25 20:33N 59°55' E 030°14'0 0.0
2014-Nov-25 19:33N 59°55' E 030°14'0 0.0
2014-Nov-25 18:33N 59°55' E 030°14'0 0.0
2014-Nov-25 17:33N 59°55' E 030°14'0 0.0
2014-Nov-25 16:29N 59°55' E 030°14'0 0.0
2014-Nov-25 15:33N 59°55' E 030°14'0 0.0
2014-Nov-25 14:33N 59°55' E 030°14'0 0.0
2014-Nov-25 13:33N 59°55' E 030°14'0 0.0
2014-Nov-25 12:31N 59°55' E 030°14'0 0.0
2014-Nov-25 11:33N 59°55' E 030°14'0 0.0
2014-Nov-25 10:33N 59°55' E 030°14'0 0.0
2014-Nov-25 09:14N 59°55' E 030°14'0 0.0
2014-Nov-25 06:33N 59°55' E 030°14'0 0.0
2014-Nov-24 18:25N 59°55' E 030°14'1 0.9
2014-Nov-24 17:30N 59°55' E 030°15'0 0.3
2014-Nov-24 16:18N 59°55' E 030°15'0 0.0
2014-Nov-23 08:14N 59°55' E 030°15'0 0.4
2014-Nov-23 07:33N 59°55' E 030°16'1 0.1
2014-Nov-22 12:26N 59°55' E 030°14'0 0.0
2014-Nov-22 11:33N 59°55' E 030°14'1 1.0
2014-Nov-22 10:33N 59°55' E 030°15'0 0.0
2014-Nov-22 09:33N 59°55' E 030°15'1 1.0
2014-Nov-22 08:32N 59°55' E 030°14'0 0.0
2014-Nov-21 18:26N 59°55' E 030°14'2 1.6
2014-Nov-21 17:27N 59°53' E 030°14'2 2.2
2014-Nov-21 16:33N 59°55' E 030°15'0 0.1
2014-Nov-21 15:32N 59°55' E 030°15'0 0.0
2014-Nov-21 03:26N 59°55' E 030°15'1 0.1
2014-Nov-20 13:10N 59°55' E 030°14'0 0.0
2014-Nov-20 12:33N 59°55' E 030°14'0 0.0
2014-Nov-20 10:14N 59°55' E 030°14'0 0.0
2014-Nov-20 06:08N 59°54' E 030°14'0 0.1
2014-Nov-20 04:33N 59°54' E 030°14'1 1.2
2014-Nov-20 03:33N 59°53' E 030°12'2 2.4
2014-Nov-20 02:33N 59°55' E 030°15'1 0.5
2014-Nov-20 00:33N 59°55' E 030°14'0 0.0
2014-Nov-19 23:25N 59°55' E 030°14'0 0.0
2014-Nov-19 22:28N 59°55' E 030°14'0 0.0
2014-Nov-19 21:30N 59°55' E 030°14'0 0.0
2014-Nov-19 16:30N 59°55' E 030°14'0 0.0
2014-Nov-19 15:33N 59°55' E 030°14'0 0.0
2014-Nov-19 14:33N 59°55' E 030°14'0 0.0
2014-Nov-19 13:33N 59°55' E 030°14'0 0.0
2014-Nov-19 12:24N 59°55' E 030°14'0 0.0
2014-Nov-19 10:33N 59°55' E 030°14'0 0.0
2014-Nov-19 08:16N 59°55' E 030°14'0 0.0
2014-Nov-19 06:19N 59°55' E 030°14'0 0.0
2014-Nov-18 20:09N 59°55' E 030°14'0 0.2
2014-Nov-18 18:33N 59°55' E 030°14'0 0.1
2014-Nov-18 12:33N 59°55' E 030°14'0 0.0
2014-Nov-18 09:22N 59°55' E 030°14'0 0.0
2014-Nov-18 08:17N 59°55' E 030°14'0 0.0
2014-Nov-18 02:31N 59°55' E 030°14'0 0.0
2014-Nov-18 01:28N 59°55' E 030°14'0 0.0
2014-Nov-18 00:33N 59°55' E 030°14'0 0.0
2014-Nov-17 23:29N 59°55' E 030°14'0 0.0
2014-Nov-17 16:07N 59°55' E 030°14'0 0.1
2014-Nov-17 15:33N 59°55' E 030°14'0 0.0
2014-Nov-17 11:32N 59°55' E 030°14'0 0.0
2014-Nov-17 07:33N 59°55' E 030°14'  
Track history (hours):
 
Tides and Currents Weather Stations Pressure Air Temp Water Temp Dewpoint Dewpoint Depression Visibility Wind Speed Wind Dir Waves Ship Positions

Muson

Last reported at 2014-Nov-27 05:33 UTC. Time now 2014-Nov-27 06:38 UTC.
Position N 59°55' E 030°15'.

Length 180 m; draft 4.6 m.

Type: Tug. MMSI: 273444990.

Date/timePositionNaut miles runAvg speedWind from/ knotsBaromVisibWave heightAir tempDewpointWater temp
2014-Nov-27 05:33N 59°55' E 030°15'3 0.6
2014-Nov-27 00:33N 59°57' E 030°19'1 0.3
2014-Nov-26 22:33N 59°56' E 030°18'1 0.6
2014-Nov-26 21:33N 59°56' E 030°17'2 0.3
2014-Nov-26 13:33N 59°55' E 030°14'0 0.0
2014-Nov-26 11:11N 59°55' E 030°14'0 0.0
2014-Nov-26 06:26N 59°55' E 030°14'0 0.0
2014-Nov-26 05:32N 59°55' E 030°14'0 0.0
2014-Nov-26 04:32N 59°55' E 030°14'0 0.0
2014-Nov-26 03:31N 59°55' E 030°14'0 0.0
2014-Nov-26 02:33N 59°55' E 030°14'0 0.0
2014-Nov-26 01:32N 59°55' E 030°14'0 0.0
2014-Nov-26 00:33N 59°55' E 030°14'0 0.0
2014-Nov-25 23:33N 59°55' E 030°14'0 0.0
2014-Nov-25 22:33N 59°55' E 030°14'0 0.0
2014-Nov-25 21:33N 59°55' E 030°14'0 0.0
2014-Nov-25 20:33N 59°55' E 030°14'0 0.0
2014-Nov-25 19:33N 59°55' E 030°14'0 0.0
2014-Nov-25 18:33N 59°55' E 030°14'0 0.0
2014-Nov-25 17:33N 59°55' E 030°14'0 0.0
2014-Nov-25 16:29N 59°55' E 030°14'0 0.0
2014-Nov-25 15:33N 59°55' E 030°14'0 0.0
2014-Nov-25 14:33N 59°55' E 030°14'0 0.0
2014-Nov-25 13:33N 59°55' E 030°14'0 0.0
2014-Nov-25 12:31N 59°55' E 030°14'0 0.0
2014-Nov-25 11:33N 59°55' E 030°14'0 0.0
2014-Nov-25 10:33N 59°55' E 030°14'0 0.0
2014-Nov-25 09:14N 59°55' E 030°14'0 0.0
2014-Nov-25 06:33N 59°55' E 030°14'0 0.0
2014-Nov-24 18:25N 59°55' E 030°14'1 0.9
2014-Nov-24 17:30N 59°55' E 030°15'0 0.3
2014-Nov-24 16:18N 59°55' E 030°15'0 0.0
2014-Nov-23 08:14N 59°55' E 030°15'0 0.4
2014-Nov-23 07:33N 59°55' E 030°16'1 0.1
2014-Nov-22 12:26N 59°55' E 030°14'0 0.0
2014-Nov-22 11:33N 59°55' E 030°14'1 1.0
2014-Nov-22 10:33N 59°55' E 030°15'0 0.0
2014-Nov-22 09:33N 59°55' E 030°15'1 1.0
2014-Nov-22 08:32N 59°55' E 030°14'0 0.0
2014-Nov-21 18:26N 59°55' E 030°14'2 1.6
2014-Nov-21 17:27N 59°53' E 030°14'2 2.2
2014-Nov-21 16:33N 59°55' E 030°15'0 0.1
2014-Nov-21 15:32N 59°55' E 030°15'0 0.0
2014-Nov-21 03:26N 59°55' E 030°15'1 0.1
2014-Nov-20 13:10N 59°55' E 030°14'0 0.0
2014-Nov-20 12:33N 59°55' E 030°14'0 0.0
2014-Nov-20 10:14N 59°55' E 030°14'0 0.0
2014-Nov-20 06:08N 59°54' E 030°14'0 0.1
2014-Nov-20 04:33N 59°54' E 030°14'1 1.2
2014-Nov-20 03:33N 59°53' E 030°12'2 2.4
2014-Nov-20 02:33N 59°55' E 030°15'1 0.5
2014-Nov-20 00:33N 59°55' E 030°14'0 0.0
2014-Nov-19 23:25N 59°55' E 030°14'0 0.0
2014-Nov-19 22:28N 59°55' E 030°14'0 0.0
2014-Nov-19 21:30N 59°55' E 030°14'0 0.0
2014-Nov-19 16:30N 59°55' E 030°14'0 0.0
2014-Nov-19 15:33N 59°55' E 030°14'0 0.0
2014-Nov-19 14:33N 59°55' E 030°14'0 0.0
2014-Nov-19 13:33N 59°55' E 030°14'0 0.0
2014-Nov-19 12:24N 59°55' E 030°14'0 0.0
2014-Nov-19 10:33N 59°55' E 030°14'0 0.0
2014-Nov-19 08:16N 59°55' E 030°14'0 0.0
2014-Nov-19 06:19N 59°55' E 030°14'0 0.0
2014-Nov-18 20:09N 59°55' E 030°14'0 0.2
2014-Nov-18 18:33N 59°55' E 030°14'0 0.1
2014-Nov-18 12:33N 59°55' E 030°14'0 0.0
2014-Nov-18 09:22N 59°55' E 030°14'0 0.0
2014-Nov-18 08:17N 59°55' E 030°14'0 0.0
2014-Nov-18 02:31N 59°55' E 030°14'0 0.0
2014-Nov-18 01:28N 59°55' E 030°14'0 0.0
2014-Nov-18 00:33N 59°55' E 030°14'0 0.0
2014-Nov-17 23:29N 59°55' E 030°14'0 0.0
2014-Nov-17 16:07N 59°55' E 030°14'0 0.1
2014-Nov-17 15:33N 59°55' E 030°14'0 0.0
2014-Nov-17 11:32N 59°55' E 030°14'0 0.0
2014-Nov-17 07:33N 59°55' E 030°14'  

Dump ship's entire track history